Time;durP1;ratioP1;P1;durP2;ratioP2;P2;SDS_P1;SDS_P2;PMS_P1;PMS_P2;Temp;Humidity;BMP_temperature;BMP_pressure;BME280_temperature;BME280_humidity;BME280_pressure;Samples;Min_cycle;Max_cycle;Signal;HPM_P1;HPM_P2
2023/01/27 00:37:36;;;;;;;;;;;;;;;0.28;67.18;100255.56;1088186;54;20000;-82
2023/01/27 00:38:39;;;;;;;;;;;;;;;0.26;66.72;100244.25;1088563;54;19927;-81
2023/01/27 00:39:43;;;;;;;;;;;;;;;0.25;66.91;100245.19;1088579;54;20606;-81
2023/01/27 00:41:14;;;;;;;;;;;;;;;0.24;66.65;100243.47;1088618;54;19938;-84
2023/01/27 00:42:08;;;;;;;;;;;;;;;0.31;66.96;100244.88;1088521;54;20281;-82
2023/01/27 00:43:09;;;;;;;;;;;;;;;0.36;66.77;100242.88;1088582;54;19950;-83
2023/01/27 00:44:13;;;;;;;;;;;;;;;0.38;66.62;100246.28;1089270;46;19946;-82
2023/01/27 00:46:18;;;;;;;;;;;;;;;0.43;66.53;100243.41;1088391;54;19930;-85
2023/01/27 00:47:22;;;;;;;;;;;;;;;0.38;66.20;100243.66;1088539;54;19950;-83
2023/01/27 00:48:23;;;;;;;;;;;;;;;0.35;66.23;100246.44;1088624;54;19968;-83
2023/01/27 00:49:26;;;;;;;;;;;;;;;0.26;66.02;100242.47;1088572;54;19926;-84
2023/01/27 00:50:27;;;;;;;;;;;;;;;0.21;66.33;100246.25;1088600;54;19927;-82
2023/01/27 00:51:31;;;;;;;;;;;;;;;0.19;66.33;100245.50;1088479;54;19942;-84
2023/01/27 00:52:38;;;;;;;;;;;;;;;0.21;66.32;100251.50;1088523;54;19926;-85
2023/01/27 00:53:39;;;;;;;;;;;;;;;0.12;65.99;100245.75;1088635;54;19927;-84
2023/01/27 00:54:43;;;;;;;;;;;;;;;0.14;66.55;100254.44;1088623;54;19965;-85
2023/01/27 00:55:46;;;;;;;;;;;;;;;0.19;66.60;100245.50;1088625;54;20687;-85
2023/01/27 00:56:49;;;;;;;;;;;;;;;0.22;66.37;100253.22;1088603;54;19926;-83
2023/01/27 00:57:50;;;;;;;;;;;;;;;0.22;66.04;100246.19;1088579;54;19942;-85
2023/01/27 00:58:55;;;;;;;;;;;;;;;0.24;66.30;100254.00;1088603;54;20512;-84
2023/01/27 00:59:56;;;;;;;;;;;;;;;0.30;66.58;100243.16;1088552;54;19927;-84
2023/01/27 01:01:02;;;;;;;;;;;;;;;0.25;66.08;100247.81;1088591;54;20657;-83
2023/01/27 01:02:03;;;;;;;;;;;;;;;0.26;66.33;100249.53;1088661;54;19927;-85
2023/01/27 01:03:07;;;;;;;;;;;;;;;0.22;65.93;100247.94;1102574;39;20511;-83
2023/01/27 01:04:11;;;;;;;;;;;;;;;0.29;66.23;100257.25;1088620;54;19930;-83
2023/01/27 01:05:12;;;;;;;;;;;;;;;0.30;65.75;100251.06;1089283;46;19926;-84
2023/01/27 01:06:17;;;;;;;;;;;;;;;0.26;65.81;100254.78;1097625;39;20570;-85
2023/01/27 01:07:19;;;;;;;;;;;;;;;0.14;66.08;100248.34;1088553;54;20646;-83
2023/01/27 01:08:25;;;;;;;;;;;;;;;0.15;66.39;100245.63;1088636;54;20638;-83
2023/01/27 01:09:26;;;;;;;;;;;;;;;0.14;66.39;100249.19;1088517;54;19942;-84
2023/01/27 01:10:30;;;;;;;;;;;;;;;0.19;66.44;100245.50;1088576;54;19949;-85
2023/01/27 01:11:31;;;;;;;;;;;;;;;0.23;66.30;100252.28;1088668;54;19927;-85
2023/01/27 01:12:35;;;;;;;;;;;;;;;0.24;66.38;100244.31;1088623;54;19935;-85
2023/01/27 01:14:39;;;;;;;;;;;;;;;0.17;66.14;100244.69;1087985;54;19934;-83
2023/01/27 01:16:46;;;;;;;;;;;;;;;0.10;66.20;100250.22;1088533;54;19934;-84
2023/01/27 01:18:53;;;;;;;;;;;;;;;0.11;66.47;100249.31;1088617;54;19942;-87
2023/01/27 01:19:54;;;;;;;;;;;;;;;0.15;66.69;100247.38;1088450;54;20630;-84
2023/01/27 01:20:58;;;;;;;;;;;;;;;0.23;66.62;100257.53;1088568;54;20740;-85
2023/01/27 01:21:59;;;;;;;;;;;;;;;0.29;66.41;100257.25;1088486;54;19949;-86
2023/01/27 01:23:06;;;;;;;;;;;;;;;0.33;66.42;100248.28;1088463;54;20538;-85
2023/01/27 01:25:16;;;;;;;;;;;;;;;0.28;66.08;100250.31;1088522;54;19942;-85
2023/01/27 01:27:25;;;;;;;;;;;;;;;0.23;66.29;100254.91;1088851;54;19927;-86
2023/01/27 01:28:26;;;;;;;;;;;;;;;0.19;66.31;100245.50;1093926;46;19938;-85
2023/01/27 01:29:30;;;;;;;;;;;;;;;0.21;66.44;100251.50;1088905;54;19934;-84
2023/01/27 01:30:34;;;;;;;;;;;;;;;0.23;66.20;100249.66;1091655;46;19986;-83
2023/01/27 01:31:38;;;;;;;;;;;;;;;0.18;66.24;100254.28;1088497;54;19982;-84
2023/01/27 01:32:39;;;;;;;;;;;;;;;0.21;66.32;100255.00;1088478;54;19927;-83
2023/01/27 01:33:43;;;;;;;;;;;;;;;0.17;66.33;100247.34;1094779;46;19950;-84
2023/01/27 01:34:44;;;;;;;;;;;;;;;0.16;66.43;100249.09;1091002;46;19957;-83
2023/01/27 01:35:47;;;;;;;;;;;;;;;0.17;66.34;100253.44;1088629;54;19923;-84
2023/01/27 01:36:49;;;;;;;;;;;;;;;0.21;66.17;100246.25;1088549;54;19923;-84
2023/01/27 01:37:52;;;;;;;;;;;;;;;0.15;66.30;100250.88;1088579;54;19927;-84
2023/01/27 01:38:54;;;;;;;;;;;;;;;0.21;66.15;100249.75;1088504;54;19950;-84
2023/01/27 01:39:58;;;;;;;;;;;;;;;0.22;66.38;100251.44;1088471;54;19950;-83
2023/01/27 01:41:02;;;;;;;;;;;;;;;0.15;66.13;100250.88;1088525;54;19934;-83
2023/01/27 01:42:05;;;;;;;;;;;;;;;0.14;66.24;100249.19;1093155;46;19947;-83
2023/01/27 01:43:12;;;;;;;;;;;;;;;0.21;66.43;100235.72;1088526;54;19927;-84
2023/01/27 01:44:23;;;;;;;;;;;;;;;0.14;66.16;100241.28;1088469;54;19926;-83
2023/01/27 01:45:43;;;;;;;;;;;;;;;0.10;66.26;100239.72;1088532;54;19942;-84
2023/01/27 01:46:46;;;;;;;;;;;;;;;0.08;66.46;100236.34;1088504;54;20828;-82
2023/01/27 01:47:47;;;;;;;;;;;;;;;0.03;66.64;100240.09;1088499;54;19950;-85
2023/01/27 01:48:53;;;;;;;;;;;;;;;0.07;66.68;100232.00;1088509;54;19934;-85
2023/01/27 01:49:55;;;;;;;;;;;;;;;0.10;66.38;100236.25;1088997;47;19943;-84
2023/01/27 01:55:17;;;;;;;;;;;;;;;0.03;66.50;100242.72;1076415;54;19942;31
2023/01/27 01:57:41;;;;;;;;;;;;;;;0.07;66.41;100236.38;1088748;54;19965;-82
2023/01/27 01:58:43;;;;;;;;;;;;;;;0.04;66.38;100234.75;1088751;54;19967;-82
2023/01/27 01:59:48;;;;;;;;;;;;;;;0.08;66.30;100230.19;1088809;54;19943;-82
2023/01/27 02:00:49;;;;;;;;;;;;;;;0.10;66.44;100238.88;1090387;46;19922;-84
2023/01/27 02:01:54;;;;;;;;;;;;;;;0.09;66.39;100238.03;1088782;54;19930;-84
2023/01/27 02:11:38;;;;;;;;;;;;;;;-0.01;66.68;100234.97;1087789;54;19939;-79
2023/01/27 02:12:41;;;;;;;;;;;;;;;0.06;66.64;100234.69;1089939;46;19939;-79
2023/01/27 02:14:51;;;;;;;;;;;;;;;0.14;66.34;100238.66;1089315;54;19993;-86
2023/01/27 02:18:08;;;;;;;;;;;;;;;0.01;66.91;100227.00;1089252;54;19927;-85
2023/01/27 02:22:26;;;;;;;;;;;;;;;-0.03;67.05;100231.56;1081298;54;19946;31
2023/01/27 02:23:40;;;;;;;;;;;;;;;-0.03;67.30;100228.09;1076612;54;19947;31
2023/01/27 02:44:17;;;;;;;;;;;;;;;0.06;67.64;100224.16;1089169;54;19943;-83
2023/01/27 02:45:18;;;;;;;;;;;;;;;0.09;67.65;100219.63;1088761;54;19927;-83
2023/01/27 02:46:21;;;;;;;;;;;;;;;0.04;67.50;100221.63;1088728;54;19934;-83
2023/01/27 02:47:23;;;;;;;;;;;;;;;0.03;67.66;100216.44;1088746;54;19943;-84
2023/01/27 02:48:26;;;;;;;;;;;;;;;0.02;67.62;100228.72;1094238;39;20195;-83
2023/01/27 02:49:28;;;;;;;;;;;;;;;0.01;67.69;100223.53;1088732;54;19933;-86
2023/01/27 02:51:34;;;;;;;;;;;;;;;0.01;67.82;100218.28;1088745;54;20768;-85
2023/01/27 02:52:35;;;;;;;;;;;;;;;0.04;67.65;100226.88;1088671;54;20614;-84
2023/01/27 02:53:40;;;;;;;;;;;;;;;0.02;67.69;100227.88;1096990;39;20559;-84
2023/01/27 02:54:41;;;;;;;;;;;;;;;0.05;67.68;100227.75;1096623;31;20616;-83
2023/01/27 02:55:44;;;;;;;;;;;;;;;0.03;67.68;100222.53;1088647;54;19927;-83
2023/01/27 02:56:45;;;;;;;;;;;;;;;0.00;67.78;100214.81;1088828;54;19970;-82
2023/01/27 02:57:49;;;;;;;;;;;;;;;0.05;67.94;100222.47;1088795;54;19986;-82
2023/01/27 02:58:50;;;;;;;;;;;;;;;-0.01;67.70;100223.63;1088794;54;19950;-83
2023/01/27 02:59:57;;;;;;;;;;;;;;;0.03;67.91;100216.44;1088771;54;19927;-83
2023/01/27 03:00:58;;;;;;;;;;;;;;;-0.05;68.11;100222.06;1088781;54;19934;-83
2023/01/27 03:02:03;;;;;;;;;;;;;;;-0.06;68.15;100218.59;1088767;54;19971;-84
2023/01/27 03:03:04;;;;;;;;;;;;;;;0.02;68.07;100226.09;1096054;39;20630;-83
2023/01/27 03:04:10;;;;;;;;;;;;;;;0.01;68.03;100219.13;1088792;54;19930;-85
2023/01/27 03:05:12;;;;;;;;;;;;;;;-0.02;67.94;100219.28;1088669;54;19943;-84
2023/01/27 03:06:16;;;;;;;;;;;;;;;-0.06;67.92;100217.72;1088768;54;20623;-83
2023/01/27 03:07:18;;;;;;;;;;;;;;;-0.08;68.14;100217.81;1088622;54;20544;-81
2023/01/27 03:08:23;;;;;;;;;;;;;;;-0.06;68.31;100218.59;1088039;54;19927;-82
2023/01/27 03:10:42;;;;;;;;;;;;;;;-0.07;68.52;100218.63;1088250;54;19930;-82
2023/01/27 03:35:47;;;;;;;;;;;;;;;-0.10;68.99;100224.91;1088086;54;19935;-82
2023/01/27 05:46:48;;;;;;;;;;;;;;;0.08;69.30;100275.78;1087618;46;19939;-83
2023/01/27 05:47:49;;;;;;;;;;;;;;;0.05;69.24;100277.69;1088383;54;19926;-84
2023/01/27 12:05:13;;;;;;;;;;;;;;;0.85;66.41;100391.44;1088641;46;19931;-83
2023/01/27 12:06:17;;;;;;;;;;;;;;;0.84;66.36;100387.94;1088601;54;19927;-82
2023/01/27 12:08:57;;;;;;;;;;;;;;;0.91;66.28;100391.97;1088057;54;20265;-82
2023/01/27 12:09:58;;;;;;;;;;;;;;;0.84;66.26;100390.56;1088577;54;19927;-84
2023/01/27 12:14:25;;;;;;;;;;;;;;;0.85;66.63;100383.53;1088650;54;20689;-83
2023/01/27 12:15:27;;;;;;;;;;;;;;;0.85;66.54;100391.44;1088639;54;19926;-84
2023/01/27 12:17:37;;;;;;;;;;;;;;;0.90;66.20;100386.78;1089033;39;20657;-84
2023/01/27 12:18:46;;;;;;;;;;;;;;;0.97;66.23;100384.72;1088626;54;19930;-83
2023/01/27 12:19:50;;;;;;;;;;;;;;;0.93;66.05;100384.84;1107563;39;20538;-83
2023/01/27 12:22:36;;;;;;;;;;;;;;;0.92;66.41;100382.31;1087876;54;19938;-83
2023/01/27 12:23:40;;;;;;;;;;;;;;;0.96;66.33;100383.84;1088722;54;19933;-84
2023/01/27 12:24:49;;;;;;;;;;;;;;;1.01;66.05;100381.84;1088633;54;20717;-84
2023/01/27 12:25:52;;;;;;;;;;;;;;;0.97;66.00;100382.91;1088561;54;19926;-81
2023/01/27 12:26:57;;;;;;;;;;;;;;;1.02;66.08;100383.56;1088530;54;19926;-82
2023/01/27 12:28:03;;;;;;;;;;;;;;;1.02;66.14;100386.19;1091587;39;20457;-84
2023/01/27 12:29:06;;;;;;;;;;;;;;;0.99;65.75;100381.06;1088491;54;19939;-82
2023/01/27 12:30:19;;;;;;;;;;;;;;;0.92;65.86;100392.84;1088594;54;19982;-83
2023/01/27 12:31:26;;;;;;;;;;;;;;;0.89;66.14;100388.56;1088604;54;19950;-82
2023/01/27 12:32:33;;;;;;;;;;;;;;;0.98;65.85;100382.00;1088523;54;19946;-82
2023/01/27 12:33:38;;;;;;;;;;;;;;;1.06;65.77;100390.38;1088559;54;20027;-82
2023/01/27 12:34:48;;;;;;;;;;;;;;;1.05;65.66;100388.66;1088566;54;19942;-82
2023/01/27 12:35:50;;;;;;;;;;;;;;;0.95;65.95;100379.50;1088576;54;19927;-82
2023/01/27 12:36:55;;;;;;;;;;;;;;;0.90;65.91;100384.16;1088459;54;19942;-82
2023/01/27 12:38:04;;;;;;;;;;;;;;;0.82;66.18;100379.25;1088453;54;19942;-81
2023/01/27 12:39:23;;;;;;;;;;;;;;;0.80;66.35;100382.88;1088581;54;20898;-81
2023/01/27 12:40:29;;;;;;;;;;;;;;;0.85;66.31;100380.91;1088612;54;19949;-82
2023/01/27 12:41:34;;;;;;;;;;;;;;;0.86;66.23;100388.72;1088410;54;19950;-82
2023/01/27 12:47:35;;;;;;;;;;;;;;;0.95;66.01;100381.28;1087865;54;19934;-80
2023/01/27 12:48:46;;;;;;;;;;;;;;;1.02;66.07;100375.66;1088362;47;19934;-82
2023/01/27 12:49:47;;;;;;;;;;;;;;;1.07;65.75;100378.06;1089151;46;19995;-81
2023/01/27 12:51:06;;;;;;;;;;;;;;;1.06;65.61;100371.94;1088259;54;19926;-82
2023/01/27 12:52:16;;;;;;;;;;;;;;;1.09;65.33;100369.16;1088291;54;19943;-82
2023/01/27 13:01:22;;;;;;;;;;;;;;;0.96;65.75;100386.47;1087638;54;19938;-79
2023/01/27 13:02:25;;;;;;;;;;;;;;;1.00;65.78;100380.13;1093340;39;20681;-82
2023/01/27 13:05:48;;;;;;;;;;;;;;;1.25;65.53;100384.19;1081083;54;19954;-83
2023/01/27 13:10:07;;;;;;;;;;;;;;;1.18;65.54;100382.78;1088086;54;19938;-82
2023/01/27 13:11:11;;;;;;;;;;;;;;;1.19;65.70;100382.72;1088193;54;19993;-82
2023/01/27 13:17:01;;;;;;;;;;;;;;;1.33;65.02;100386.44;1087918;54;19965;-82
2023/01/27 13:19:53;;;;;;;;;;;;;;;1.42;65.25;100391.25;1087971;54;19965;-85
2023/01/27 13:24:07;;;;;;;;;;;;;;;1.56;64.65;100393.19;1087711;54;19995;-82
2023/01/27 13:25:13;;;;;;;;;;;;;;;1.62;64.59;100392.00;1088158;54;19935;-82
2023/01/27 13:26:21;;;;;;;;;;;;;;;1.57;64.38;100389.63;1088172;54;19949;-83
2023/01/27 13:29:14;;;;;;;;;;;;;;;1.52;64.58;100389.84;1087667;54;19983;-81
2023/01/27 13:30:22;;;;;;;;;;;;;;;1.40;64.51;100391.34;1088262;54;19927;-82
2023/01/27 13:31:33;;;;;;;;;;;;;;;1.34;64.93;100396.91;1088302;54;19931;-82
2023/01/27 13:32:47;;;;;;;;;;;;;;;1.31;64.86;100383.03;1089956;46;20678;-83
2023/01/27 13:33:53;;;;;;;;;;;;;;;1.36;65.10;100386.28;1093053;46;19963;-83
2023/01/27 13:45:51;;;;;;;;;;;;;;;1.54;64.52;100380.09;1087548;54;19942;-80
2023/01/27 13:47:02;;;;;;;;;;;;;;;1.52;64.44;100384.59;1089472;46;19923;-82
2023/01/27 14:16:28;;;;;;;;;;;;;;;1.67;64.22;100396.13;1082568;54;20233;31
2023/01/27 14:24:11;;;;;;;;;;;;;;;1.90;63.58;100391.41;1088044;54;19963;-82
2023/01/27 14:25:25;;;;;;;;;;;;;;;1.98;63.61;100389.25;1088266;54;20485;-84
2023/01/27 14:26:47;;;;;;;;;;;;;;;1.95;63.38;100383.25;1088041;54;19992;-82
2023/01/27 14:32:38;;;;;;;;;;;;;;;2.01;63.42;100399.63;1088575;54;20038;-85
2023/01/27 14:33:43;;;;;;;;;;;;;;;2.02;63.34;100401.31;1088437;54;19927;-83
2023/01/27 14:45:20;;;;;;;;;;;;;;;1.81;63.79;100402.44;1076043;54;19946;31
